sensor_id;sensor_type;location;lat;lon;timestamp;pressure;altitude;pressure_sealevel;temperature;humidity
30339;BME280;795;49.296;11.348;2023-04-06T00:00:58;96524.72;;;-1.40;95.87
30339;BME280;795;49.296;11.348;2023-04-06T00:03:26;96607.31;;;-1.12;98.67
30339;BME280;795;49.296;11.348;2023-04-06T00:05:53;96540.31;;;-1.65;100.00
30339;BME280;795;49.296;11.348;2023-04-06T00:08:20;96561.84;;;-1.58;100.00
30339;BME280;795;49.296;11.348;2023-04-06T00:10:48;96527.97;;;-1.78;99.54
30339;BME280;795;49.296;11.348;2023-04-06T00:13:15;96541.94;;;-1.48;97.14
30339;BME280;795;49.296;11.348;2023-04-06T00:15:42;96485.59;;;-1.74;95.02
30339;BME280;795;49.296;11.348;2023-04-06T00:18:09;96509.50;;;-1.49;94.14
30339;BME280;795;49.296;11.348;2023-04-06T00:20:36;96600.81;;;-1.07;97.95
30339;BME280;795;49.296;11.348;2023-04-06T00:23:03;96511.47;;;-1.96;99.50
30339;BME280;795;49.296;11.348;2023-04-06T00:25:30;96564.41;;;-1.86;100.00
30339;BME280;795;49.296;11.348;2023-04-06T00:27:57;96494.53;;;-2.50;100.00
30339;BME280;795;49.296;11.348;2023-04-06T00:30:23;96570.78;;;-2.20;100.00
30339;BME280;795;49.296;11.348;2023-04-06T00:32:51;96541.16;;;-2.38;100.00
30339;BME280;795;49.296;11.348;2023-04-06T00:35:18;96557.50;;;-2.33;100.00
30339;BME280;795;49.296;11.348;2023-04-06T00:37:47;96591.38;;;-2.13;100.00
30339;BME280;795;49.296;11.348;2023-04-06T00:40:15;96588.75;;;-2.13;100.00
30339;BME280;795;49.296;11.348;2023-04-06T00:42:42;96461.63;;;-3.02;100.00
30339;BME280;795;49.296;11.348;2023-04-06T00:45:10;96593.19;;;-2.29;100.00
30339;BME280;795;49.296;11.348;2023-04-06T00:47:37;96593.53;;;-2.35;100.00
30339;BME280;795;49.296;11.348;2023-04-06T00:50:05;96527.84;;;-2.66;100.00
30339;BME280;795;49.296;11.348;2023-04-06T00:52:34;96589.13;;;-2.34;100.00
30339;BME280;795;49.296;11.348;2023-04-06T00:55:03;96497.06;;;-2.94;100.00
30339;BME280;795;49.296;11.348;2023-04-06T00:57:31;96574.22;;;-2.49;100.00
30339;BME280;795;49.296;11.348;2023-04-06T00:59:58;96584.06;;;-2.53;100.00
30339;BME280;795;49.296;11.348;2023-04-06T01:02:25;96566.34;;;-2.65;100.00
30339;BME280;795;49.296;11.348;2023-04-06T01:04:53;96590.25;;;-2.54;100.00
30339;BME280;795;49.296;11.348;2023-04-06T01:07:23;96553.16;;;-2.79;100.00
30339;BME280;795;49.296;11.348;2023-04-06T01:09:54;96515.41;;;-3.09;100.00
30339;BME280;795;49.296;11.348;2023-04-06T01:12:21;96532.69;;;-3.21;100.00
30339;BME280;795;49.296;11.348;2023-04-06T01:14:48;96398.25;;;-4.06;100.00
30339;BME280;795;49.296;11.348;2023-04-06T01:17:15;96579.13;;;-2.90;100.00
30339;BME280;795;49.296;11.348;2023-04-06T01:19:42;96529.38;;;-3.24;100.00
30339;BME280;795;49.296;11.348;2023-04-06T01:22:17;96583.97;;;-2.98;100.00
30339;BME280;795;49.296;11.348;2023-04-06T01:24:45;96542.78;;;-3.13;100.00
30339;BME280;795;49.296;11.348;2023-04-06T01:27:13;96571.16;;;-3.04;100.00
30339;BME280;795;49.296;11.348;2023-04-06T01:29:40;96573.94;;;-3.07;100.00
30339;BME280;795;49.296;11.348;2023-04-06T01:32:09;96566.34;;;-2.96;100.00
30339;BME280;795;49.296;11.348;2023-04-06T01:34:36;96457.66;;;-3.56;100.00
30339;BME280;795;49.296;11.348;2023-04-06T01:37:03;96567.53;;;-2.86;100.00
30339;BME280;795;49.296;11.348;2023-04-06T01:39:30;96569.84;;;-2.96;100.00
30339;BME280;795;49.296;11.348;2023-04-06T01:41:57;96480.53;;;-3.43;100.00
30339;BME280;795;49.296;11.348;2023-04-06T01:44:24;96556.94;;;-3.00;100.00
30339;BME280;795;49.296;11.348;2023-04-06T01:46:51;96450.84;;;-3.76;100.00
30339;BME280;795;49.296;11.348;2023-04-06T01:49:18;96549.81;;;-3.14;100.00
30339;BME280;795;49.296;11.348;2023-04-06T01:51:45;96553.78;;;-3.22;100.00
30339;BME280;795;49.296;11.348;2023-04-06T01:54:12;96561.75;;;-3.08;100.00
30339;BME280;795;49.296;11.348;2023-04-06T01:56:39;96512.25;;;-3.31;100.00
30339;BME280;795;49.296;11.348;2023-04-06T01:59:07;96397.75;;;-3.96;100.00
30339;BME280;795;49.296;11.348;2023-04-06T02:01:34;96553.38;;;-3.15;100.00
30339;BME280;795;49.296;11.348;2023-04-06T02:04:01;96445.56;;;-3.91;100.00
30339;BME280;795;49.296;11.348;2023-04-06T02:06:28;96552.34;;;-3.28;100.00
30339;BME280;795;49.296;11.348;2023-04-06T02:08:55;96499.19;;;-3.64;100.00
30339;BME280;795;49.296;11.348;2023-04-06T02:11:22;96493.59;;;-3.74;100.00
30339;BME280;795;49.296;11.348;2023-04-06T02:13:49;96548.66;;;-3.41;100.00
30339;BME280;795;49.296;11.348;2023-04-06T02:16:16;96550.97;;;-3.35;100.00
30339;BME280;795;49.296;11.348;2023-04-06T02:18:43;96525.94;;;-3.58;100.00
30339;BME280;795;49.296;11.348;2023-04-06T02:21:10;96547.09;;;-3.28;100.00
30339;BME280;795;49.296;11.348;2023-04-06T02:23:37;96486.59;;;-3.58;100.00
30339;BME280;795;49.296;11.348;2023-04-06T02:26:04;96522.50;;;-3.27;100.00
30339;BME280;795;49.296;11.348;2023-04-06T02:28:31;96541.28;;;-3.17;100.00
30339;BME280;795;49.296;11.348;2023-04-06T02:30:58;96512.72;;;-3.23;100.00
30339;BME280;795;49.296;11.348;2023-04-06T02:33:25;96545.84;;;-3.05;100.00
30339;BME280;795;49.296;11.348;2023-04-06T02:35:51;96536.94;;;-3.18;100.00
30339;BME280;795;49.296;11.348;2023-04-06T02:38:18;96475.69;;;-3.50;100.00
30339;BME280;795;49.296;11.348;2023-04-06T02:40:46;96522.97;;;-3.34;100.00
30339;BME280;795;49.296;11.348;2023-04-06T02:43:12;96511.56;;;-3.51;100.00
30339;BME280;795;49.296;11.348;2023-04-06T02:45:39;96541.78;;;-3.44;100.00
30339;BME280;795;49.296;11.348;2023-04-06T02:48:06;96531.28;;;-3.44;100.00
30339;BME280;795;49.296;11.348;2023-04-06T02:50:33;96485.25;;;-3.82;100.00
30339;BME280;795;49.296;11.348;2023-04-06T02:53:00;96475.88;;;-3.86;100.00
30339;BME280;795;49.296;11.348;2023-04-06T02:55:27;96535.28;;;-3.52;100.00
30339;BME280;795;49.296;11.348;2023-04-06T02:57:54;96474.75;;;-3.97;100.00
30339;BME280;795;49.296;11.348;2023-04-06T03:00:21;96540.09;;;-3.77;100.00
30339;BME280;795;49.296;11.348;2023-04-06T03:02:48;96534.66;;;-3.57;100.00
30339;BME280;795;49.296;11.348;2023-04-06T03:05:15;96447.09;;;-4.20;100.00
30339;BME280;795;49.296;11.348;2023-04-06T03:07:42;96530.66;;;-3.64;100.00
30339;BME280;795;49.296;11.348;2023-04-06T03:10:09;96543.41;;;-3.41;100.00
30339;BME280;795;49.296;11.348;2023-04-06T03:12:36;96540.31;;;-3.32;100.00
30339;BME280;795;49.296;11.348;2023-04-06T03:15:04;96550.97;;;-3.19;100.00
30339;BME280;795;49.296;11.348;2023-04-06T03:17:31;96444.66;;;-3.75;100.00
30339;BME280;795;49.296;11.348;2023-04-06T03:19:58;96525.16;;;-3.11;100.00
30339;BME280;795;49.296;11.348;2023-04-06T03:22:25;96535.91;;;-3.00;100.00
30339;BME280;795;49.296;11.348;2023-04-06T03:24:52;96503.16;;;-3.09;100.00
30339;BME280;795;49.296;11.348;2023-04-06T03:27:19;96521.88;;;-2.99;100.00
30339;BME280;795;49.296;11.348;2023-04-06T03:29:46;96460.63;;;-3.31;100.00
30339;BME280;795;49.296;11.348;2023-04-06T03:32:13;96545.00;;;-2.75;100.00
30339;BME280;795;49.296;11.348;2023-04-06T03:34:40;96531.94;;;-2.76;100.00
30339;BME280;795;49.296;11.348;2023-04-06T03:37:07;96524.50;;;-2.99;100.00
30339;BME280;795;49.296;11.348;2023-04-06T03:39:36;96451.56;;;-3.57;100.00
30339;BME280;795;49.296;11.348;2023-04-06T03:42:03;96516.44;;;-3.27;100.00
30339;BME280;795;49.296;11.348;2023-04-06T03:44:30;96519.22;;;-3.30;100.00
30339;BME280;795;49.296;11.348;2023-04-06T03:46:58;96557.59;;;-3.12;100.00
30339;BME280;795;49.296;11.348;2023-04-06T03:49:25;96552.69;;;-3.18;100.00
30339;BME280;795;49.296;11.348;2023-04-06T03:51:53;96504.13;;;-3.43;100.00
30339;BME280;795;49.296;11.348;2023-04-06T03:54:20;96501.88;;;-3.33;100.00
30339;BME280;795;49.296;11.348;2023-04-06T03:56:47;96560.75;;;-2.90;100.00
30339;BME280;795;49.296;11.348;2023-04-06T03:59:13;96561.78;;;-2.77;100.00
30339;BME280;795;49.296;11.348;2023-04-06T04:01:41;96473.09;;;-3.34;100.00
30339;BME280;795;49.296;11.348;2023-04-06T04:04:10;96511.66;;;-3.37;100.00
30339;BME280;795;49.296;11.348;2023-04-06T04:06:37;96511.59;;;-3.35;100.00
30339;BME280;795;49.296;11.348;2023-04-06T04:09:03;96509.69;;;-3.49;100.00
30339;BME280;795;49.296;11.348;2023-04-06T04:11:30;96476.84;;;-3.71;100.00
30339;BME280;795;49.296;11.348;2023-04-06T04:13:57;96519.28;;;-3.48;100.00
30339;BME280;795;49.296;11.348;2023-04-06T04:16:24;96568.19;;;-3.29;100.00
30339;BME280;795;49.296;11.348;2023-04-06T04:18:52;96574.75;;;-3.38;100.00
30339;BME280;795;49.296;11.348;2023-04-06T04:21:18;96571.50;;;-3.43;100.00
30339;BME280;795;49.296;11.348;2023-04-06T04:23:46;96540.47;;;-3.68;100.00
30339;BME280;795;49.296;11.348;2023-04-06T04:26:13;96564.69;;;-3.63;100.00
30339;BME280;795;49.296;11.348;2023-04-06T04:28:40;96532.56;;;-3.83;100.00
30339;BME280;795;49.296;11.348;2023-04-06T04:31:06;96547.34;;;-3.82;100.00
30339;BME280;795;49.296;11.348;2023-04-06T04:33:33;96567.41;;;-3.64;100.00
30339;BME280;795;49.296;11.348;2023-04-06T04:36:00;96384.25;;;-4.89;100.00
30339;BME280;795;49.296;11.348;2023-04-06T04:38:27;96571.41;;;-3.57;100.00
30339;BME280;795;49.296;11.348;2023-04-06T04:40:54;96497.13;;;-4.25;100.00
30339;BME280;795;49.296;11.348;2023-04-06T04:43:21;96500.38;;;-4.20;100.00
30339;BME280;795;49.296;11.348;2023-04-06T04:45:48;96450.13;;;-4.45;100.00
30339;BME280;795;49.296;11.348;2023-04-06T04:48:15;96574.84;;;-3.40;100.00
30339;BME280;795;49.296;11.348;2023-04-06T04:50:42;96567.53;;;-3.17;100.00
30339;BME280;795;49.296;11.348;2023-04-06T04:53:09;96529.75;;;-3.15;100.00
30339;BME280;795;49.296;11.348;2023-04-06T04:55:36;96570.59;;;-2.94;100.00
30339;BME280;795;49.296;11.348;2023-04-06T04:58:02;96434.56;;;-3.82;100.00
30339;BME280;795;49.296;11.348;2023-04-06T05:00:29;96539.88;;;-3.24;100.00
30339;BME280;795;49.296;11.348;2023-04-06T05:02:57;96521.81;;;-3.46;100.00
30339;BME280;795;49.296;11.348;2023-04-06T05:05:24;96474.78;;;-3.82;100.00
30339;BME280;795;49.296;11.348;2023-04-06T05:07:51;96562.13;;;-3.31;100.00
30339;BME280;795;49.296;11.348;2023-04-06T05:10:18;96556.81;;;-3.30;100.00
30339;BME280;795;49.296;11.348;2023-04-06T05:12:44;96543.34;;;-3.40;100.00
30339;BME280;795;49.296;11.348;2023-04-06T05:15:11;96573.84;;;-3.21;100.00
30339;BME280;795;49.296;11.348;2023-04-06T05:17:38;96570.56;;;-3.25;100.00
30339;BME280;795;49.296;11.348;2023-04-06T05:20:07;96474.78;;;-3.82;100.00
30339;BME280;795;49.296;11.348;2023-04-06T05:22:34;96506.66;;;-3.57;100.00
30339;BME280;795;49.296;11.348;2023-04-06T05:25:03;96481.28;;;-3.41;100.00
30339;BME280;795;49.296;11.348;2023-04-06T05:27:30;96550.00;;;-2.54;100.00
30339;BME280;795;49.296;11.348;2023-04-06T05:29:57;96502.34;;;-2.19;100.00
30339;BME280;795;49.296;11.348;2023-04-06T05:32:24;96569.19;;;-1.35;100.00
30339;BME280;795;49.296;11.348;2023-04-06T05:34:51;96509.59;;;-1.36;100.00
30339;BME280;795;49.296;11.348;2023-04-06T05:37:18;96427.19;;;-1.24;100.00
30339;BME280;795;49.296;11.348;2023-04-06T05:39:45;96570.47;;;-0.04;100.00
30339;BME280;795;49.296;11.348;2023-04-06T05:42:13;96552.84;;;-0.04;100.00
30339;BME280;795;49.296;11.348;2023-04-06T05:44:40;96464.25;;;-0.20;100.00
30339;BME280;795;49.296;11.348;2023-04-06T05:47:07;96580.44;;;0.70;100.00
30339;BME280;795;49.296;11.348;2023-04-06T05:49:34;96532.75;;;0.71;100.00
30339;BME280;795;49.296;11.348;2023-04-06T05:52:02;96519.97;;;0.78;98.83
30339;BME280;795;49.296;11.348;2023-04-06T05:54:28;96554.16;;;1.29;94.66
30339;BME280;795;49.296;11.348;2023-04-06T05:56:56;96557.72;;;1.41;90.89
30339;BME280;795;49.296;11.348;2023-04-06T05:59:22;96565.94;;;1.49;92.32
30339;BME280;795;49.296;11.348;2023-04-06T06:01:50;96593.25;;;1.86;93.30
30339;BME280;795;49.296;11.348;2023-04-06T06:04:17;96584.69;;;2.30;91.37
30339;BME280;795;49.296;11.348;2023-04-06T06:06:44;96544.81;;;2.66;83.67
30339;BME280;795;49.296;11.348;2023-04-06T06:09:11;96597.59;;;2.80;85.63
30339;BME280;795;49.296;11.348;2023-04-06T06:11:38;96523.38;;;2.91;73.77
30339;BME280;795;49.296;11.348;2023-04-06T06:14:05;96569.19;;;3.15;77.70
30339;BME280;795;49.296;11.348;2023-04-06T06:16:32;96565.34;;;3.19;78.19
30339;BME280;795;49.296;11.348;2023-04-06T06:18:59;96435.28;;;2.65;73.66
30339;BME280;795;49.296;11.348;2023-04-06T06:21:26;96556.53;;;3.19;72.84
30339;BME280;795;49.296;11.348;2023-04-06T06:23:53;96443.34;;;2.86;71.09
30339;BME280;795;49.296;11.348;2023-04-06T06:26:21;96531.91;;;3.50;68.65
30339;BME280;795;49.296;11.348;2023-04-06T06:28:48;96604.31;;;4.17;67.04
30339;BME280;795;49.296;11.348;2023-04-06T06:31:15;96597.50;;;4.35;63.87
30339;BME280;795;49.296;11.348;2023-04-06T06:33:42;96575.00;;;4.08;63.76
30339;BME280;795;49.296;11.348;2023-04-06T06:36:09;96600.25;;;4.34;65.12
30339;BME280;795;49.296;11.348;2023-04-06T06:38:36;96544.13;;;4.27;63.38
30339;BME280;795;49.296;11.348;2023-04-06T06:41:04;96603.84;;;4.76;61.45
30339;BME280;795;49.296;11.348;2023-04-06T06:43:31;96550.19;;;4.50;61.25
30339;BME280;795;49.296;11.348;2023-04-06T06:45:58;96463.88;;;4.13;61.32
30339;BME280;795;49.296;11.348;2023-04-06T06:48:25;96535.16;;;4.60;60.56
30339;BME280;795;49.296;11.348;2023-04-06T06:50:52;96542.41;;;4.58;60.61
30339;BME280;795;49.296;11.348;2023-04-06T06:53:20;96606.47;;;5.38;59.31
30339;BME280;795;49.296;11.348;2023-04-06T06:55:47;96607.34;;;5.48;58.70
30339;BME280;795;49.296;11.348;2023-04-06T06:58:18;96605.19;;;5.32;57.03
30339;BME280;795;49.296;11.348;2023-04-06T07:00:46;96590.50;;;5.38;59.75
30339;BME280;795;49.296;11.348;2023-04-06T07:03:13;96612.50;;;5.70;57.84
30339;BME280;795;49.296;11.348;2023-04-06T07:05:46;96608.97;;;5.90;57.78
30339;BME280;795;49.296;11.348;2023-04-06T07:08:22;96616.00;;;6.00;58.30
30339;BME280;795;49.296;11.348;2023-04-06T07:10:52;96617.75;;;6.30;57.03
30339;BME280;795;49.296;11.348;2023-04-06T07:13:20;96607.19;;;6.10;56.59
30339;BME280;795;49.296;11.348;2023-04-06T07:15:50;96593.75;;;6.21;56.41
30339;BME280;795;49.296;11.348;2023-04-06T07:18:19;96621.72;;;6.74;55.78
30339;BME280;795;49.296;11.348;2023-04-06T07:20:46;96585.91;;;6.48;54.15
30339;BME280;795;49.296;11.348;2023-04-06T07:23:13;96617.63;;;6.32;53.14
30339;BME280;795;49.296;11.348;2023-04-06T07:25:41;96615.09;;;6.40;54.57
30339;BME280;795;49.296;11.348;2023-04-06T07:28:08;96567.78;;;6.42;52.85
30339;BME280;795;49.296;11.348;2023-04-06T07:30:38;96616.66;;;7.09;51.21
30339;BME280;795;49.296;11.348;2023-04-06T07:33:05;96612.00;;;7.21;50.96
30339;BME280;795;49.296;11.348;2023-04-06T07:35:32;96513.47;;;6.62;50.53
30339;BME280;795;49.296;11.348;2023-04-06T07:38:00;96532.44;;;6.78;51.67
30339;BME280;795;49.296;11.348;2023-04-06T07:40:28;96529.34;;;6.44;52.10
30339;BME280;795;49.296;11.348;2023-04-06T07:42:55;96571.28;;;7.09;51.95
30339;BME280;795;49.296;11.348;2023-04-06T07:45:23;96576.38;;;6.74;52.79
30339;BME280;795;49.296;11.348;2023-04-06T07:47:50;96494.25;;;6.20;53.03
30339;BME280;795;49.296;11.348;2023-04-06T07:50:18;96511.09;;;6.59;53.03
30339;BME280;795;49.296;11.348;2023-04-06T07:52:45;96516.59;;;7.13;51.39
30339;BME280;795;49.296;11.348;2023-04-06T07:55:12;96546.59;;;7.71;51.10
30339;BME280;795;49.296;11.348;2023-04-06T07:57:39;96577.91;;;8.33;51.29
30339;BME280;795;49.296;11.348;2023-04-06T08:00:07;96516.94;;;7.38;51.12
30339;BME280;795;49.296;11.348;2023-04-06T08:03:46;96601.72;;;8.72;48.77
30339;BME280;795;49.296;11.348;2023-04-06T08:06:14;96555.84;;;8.04;48.60
30339;BME280;795;49.296;11.348;2023-04-06T08:08:42;96574.81;;;8.73;48.78
30339;BME280;795;49.296;11.348;2023-04-06T08:11:09;96552.06;;;8.95;47.13
30339;BME280;795;49.296;11.348;2023-04-06T08:13:36;96438.09;;;8.92;45.74
30339;BME280;795;49.296;11.348;2023-04-06T08:16:04;96571.69;;;9.47;44.97
30339;BME280;795;49.296;11.348;2023-04-06T08:18:31;96448.44;;;8.09;46.96
30339;BME280;795;49.296;11.348;2023-04-06T08:20:58;96546.59;;;8.79;46.93
30339;BME280;795;49.296;11.348;2023-04-06T08:23:25;96590.28;;;9.48;45.29
30339;BME280;795;49.296;11.348;2023-04-06T08:25:52;96615.13;;;9.84;45.77
30339;BME280;795;49.296;11.348;2023-04-06T08:28:21;96474.47;;;9.03;44.83
30339;BME280;795;49.296;11.348;2023-04-06T08:30:48;96587.50;;;9.91;43.24
30339;BME280;795;49.296;11.348;2023-04-06T08:33:15;96550.72;;;10.10;42.87
30339;BME280;795;49.296;11.348;2023-04-06T08:35:42;96633.06;;;10.59;43.44
30339;BME280;795;49.296;11.348;2023-04-06T08:38:09;96576.00;;;10.49;42.72
30339;BME280;795;49.296;11.348;2023-04-06T08:40:38;96603.75;;;10.98;42.90
30339;BME280;795;49.296;11.348;2023-04-06T08:43:14;96625.06;;;10.83;42.26
30339;BME280;795;49.296;11.348;2023-04-06T08:45:43;96559.63;;;11.08;41.33
30339;BME280;795;49.296;11.348;2023-04-06T08:48:12;96626.09;;;11.63;40.47
30339;BME280;795;49.296;11.348;2023-04-06T08:50:39;96609.28;;;11.61;40.74
30339;BME280;795;49.296;11.348;2023-04-06T08:53:07;96575.97;;;11.94;40.21
30339;BME280;795;49.296;11.348;2023-04-06T08:55:36;96622.63;;;12.17;39.23
30339;BME280;795;49.296;11.348;2023-04-06T08:58:06;96618.38;;;11.76;38.87
30339;BME280;795;49.296;11.348;2023-04-06T09:00:39;96558.53;;;11.82;38.31
30339;BME280;795;49.296;11.348;2023-04-06T09:03:07;96595.28;;;12.44;39.57
30339;BME280;795;49.296;11.348;2023-04-06T09:05:35;96567.69;;;12.04;38.40
30339;BME280;795;49.296;11.348;2023-04-06T09:08:03;96621.03;;;12.39;37.73
30339;BME280;795;49.296;11.348;2023-04-06T09:10:30;96568.66;;;12.49;36.34
30339;BME280;795;49.296;11.348;2023-04-06T09:13:08;96594.28;;;13.21;36.05
30339;BME280;795;49.296;11.348;2023-04-06T09:15:37;96603.28;;;13.37;35.92
30339;BME280;795;49.296;11.348;2023-04-06T09:18:04;96575.56;;;13.43;34.29
30339;BME280;795;49.296;11.348;2023-04-06T09:20:32;96607.75;;;13.96;35.31
30339;BME280;795;49.296;11.348;2023-04-06T09:22:59;96624.78;;;13.96;33.63
30339;BME280;795;49.296;11.348;2023-04-06T09:25:26;96619.56;;;14.24;33.27
30339;BME280;795;49.296;11.348;2023-04-06T09:28:03;96626.59;;;14.63;32.73
30339;BME280;795;49.296;11.348;2023-04-06T09:30:32;96611.34;;;14.76;32.08
30339;BME280;795;49.296;11.348;2023-04-06T09:32:59;96541.50;;;14.58;31.26
30339;BME280;795;49.296;11.348;2023-04-06T09:35:26;96590.38;;;14.78;32.91
30339;BME280;795;49.296;11.348;2023-04-06T09:37:54;96618.72;;;12.67;32.24
30339;BME280;795;49.296;11.348;2023-04-06T09:40:22;96566.44;;;12.22;32.77
30339;BME280;795;49.296;11.348;2023-04-06T09:42:50;96618.03;;;11.39;34.09
30339;BME280;795;49.296;11.348;2023-04-06T09:45:19;96527.53;;;10.58;36.59
30339;BME280;795;49.296;11.348;2023-04-06T09:47:48;96616.63;;;12.77;35.30
30339;BME280;795;49.296;11.348;2023-04-06T09:50:19;96615.47;;;13.02;35.62
30339;BME280;795;49.296;11.348;2023-04-06T09:52:56;96584.22;;;12.62;34.35
30339;BME280;795;49.296;11.348;2023-04-06T09:55:43;96551.00;;;12.70;34.07
30339;BME280;795;49.296;11.348;2023-04-06T09:58:17;96568.25;;;13.51;33.69
30339;BME280;795;49.296;11.348;2023-04-06T10:01:15;96559.56;;;13.41;33.46
30339;BME280;795;49.296;11.348;2023-04-06T10:06:47;96607.47;;;13.91;34.28
30339;BME280;795;49.296;11.348;2023-04-06T10:09:25;96587.84;;;14.55;33.09
30339;BME280;795;49.296;11.348;2023-04-06T10:11:55;96523.78;;;14.20;34.63
30339;BME280;795;49.296;11.348;2023-04-06T10:14:23;96578.69;;;14.13;33.78
30339;BME280;795;49.296;11.348;2023-04-06T10:16:50;96502.25;;;14.27;33.08
30339;BME280;795;49.296;11.348;2023-04-06T10:19:27;96580.56;;;14.92;32.43
30339;BME280;795;49.296;11.348;2023-04-06T10:22:01;96572.31;;;15.63;31.70
30339;BME280;795;49.296;11.348;2023-04-06T10:24:29;96508.16;;;14.30;31.77
30339;BME280;795;49.296;11.348;2023-04-06T10:27:03;96589.69;;;15.75;30.67
30339;BME280;795;49.296;11.348;2023-04-06T10:29:47;96592.09;;;15.91;29.95
30339;BME280;795;49.296;11.348;2023-04-06T10:32:18;96517.25;;;16.18;29.95
30339;BME280;795;49.296;11.348;2023-04-06T10:34:45;96560.94;;;16.09;30.55
30339;BME280;795;49.296;11.348;2023-04-06T10:37:14;96586.50;;;14.87;31.82
30339;BME280;795;49.296;11.348;2023-04-06T10:40:19;96490.44;;;14.63;30.69
30339;BME280;795;49.296;11.348;2023-04-06T10:42:46;96489.56;;;14.42;31.22
30339;BME280;795;49.296;11.348;2023-04-06T10:45:25;96520.25;;;14.05;31.83
30339;BME280;795;49.296;11.348;2023-04-06T10:47:53;96519.25;;;13.91;33.21
30339;BME280;795;49.296;11.348;2023-04-06T10:50:22;96572.28;;;14.28;33.21
30339;BME280;795;49.296;11.348;2023-04-06T10:53:01;96579.25;;;14.88;32.98
30339;BME280;795;49.296;11.348;2023-04-06T10:55:29;96523.91;;;14.84;33.25
30339;BME280;795;49.296;11.348;2023-04-06T10:57:58;96519.16;;;14.86;32.56
30339;BME280;795;49.296;11.348;2023-04-06T11:00:25;96570.97;;;15.32;30.86
30339;BME280;795;49.296;11.348;2023-04-06T11:03:09;96461.09;;;15.31;31.29
30339;BME280;795;49.296;11.348;2023-04-06T11:05:35;96515.88;;;13.08;33.11
30339;BME280;795;49.296;11.348;2023-04-06T11:08:02;96402.88;;;13.51;32.29
30339;BME280;795;49.296;11.348;2023-04-06T11:10:29;96429.38;;;14.12;32.60
30339;BME280;795;49.296;11.348;2023-04-06T11:12:57;96511.78;;;16.05;31.72
30339;BME280;795;49.296;11.348;2023-04-06T11:15:24;96516.88;;;15.87;31.09
30339;BME280;795;49.296;11.348;2023-04-06T11:17:51;96477.63;;;16.51;29.09
30339;BME280;795;49.296;11.348;2023-04-06T11:20:18;96507.41;;;17.58;29.03
30339;BME280;795;49.296;11.348;2023-04-06T11:22:53;96555.41;;;17.64;27.75
30339;BME280;795;49.296;11.348;2023-04-06T11:25:20;96552.66;;;18.03;27.82
30339;BME280;795;49.296;11.348;2023-04-06T11:27:48;96487.97;;;17.41;27.34
30339;BME280;795;49.296;11.348;2023-04-06T11:30:16;96472.13;;;18.28;25.96
30339;BME280;795;49.296;11.348;2023-04-06T11:32:45;96429.50;;;17.65;27.34
30339;BME280;795;49.296;11.348;2023-04-06T11:35:23;96464.44;;;18.19;26.01
30339;BME280;795;49.296;11.348;2023-04-06T11:37:51;96490.22;;;18.92;25.80
30339;BME280;795;49.296;11.348;2023-04-06T11:40:25;96421.13;;;16.55;28.72
30339;BME280;795;49.296;11.348;2023-04-06T11:42:56;96470.09;;;15.65;29.09
30339;BME280;795;49.296;11.348;2023-04-06T11:45:23;96495.38;;;15.79;29.42
30339;BME280;795;49.296;11.348;2023-04-06T11:47:59;96523.38;;;17.00;28.51
30339;BME280;795;49.296;11.348;2023-04-06T11:50:33;96519.25;;;17.11;28.68
30339;BME280;795;49.296;11.348;2023-04-06T11:53:03;96483.78;;;17.19;27.65
30339;BME280;795;49.296;11.348;2023-04-06T11:55:38;96461.09;;;15.31;29.29
30339;BME280;795;49.296;11.348;2023-04-06T11:58:06;96515.22;;;15.86;30.40
30339;BME280;795;49.296;11.348;2023-04-06T12:00:33;96513.41;;;17.07;28.68
30339;BME280;795;49.296;11.348;2023-04-06T12:03:01;96510.91;;;17.71;27.53
30339;BME280;795;49.296;11.348;2023-04-06T12:05:28;96423.50;;;16.17;27.56
30339;BME280;795;49.296;11.348;2023-04-06T12:07:55;96515.25;;;16.94;28.65
30339;BME280;795;49.296;11.348;2023-04-06T12:10:25;96477.88;;;16.70;27.66
30339;BME280;795;49.296;11.348;2023-04-06T12:12:52;96530.72;;;17.00;27.42
30339;BME280;795;49.296;11.348;2023-04-06T12:15:19;96419.00;;;17.81;27.16
30339;BME280;795;49.296;11.348;2023-04-06T12:17:46;96477.63;;;18.97;25.38
30339;BME280;795;49.296;11.348;2023-04-06T12:20:13;96466.91;;;18.71;26.90
30339;BME280;795;49.296;11.348;2023-04-06T12:22:52;96506.63;;;18.28;26.76
30339;BME280;795;49.296;11.348;2023-04-06T12:25:19;96451.03;;;17.53;26.41
30339;BME280;795;49.296;11.348;2023-04-06T12:27:47;96504.44;;;17.92;27.48
30339;BME280;795;49.296;11.348;2023-04-06T12:30:14;96471.03;;;17.13;26.77
30339;BME280;795;49.296;11.348;2023-04-06T12:32:41;96436.16;;;16.77;27.49
30339;BME280;795;49.296;11.348;2023-04-06T12:35:09;96453.69;;;17.27;26.46
30339;BME280;795;49.296;11.348;2023-04-06T12:37:36;96402.34;;;17.45;26.79
30339;BME280;795;49.296;11.348;2023-04-06T12:40:04;96441.19;;;17.13;27.72
30339;BME280;795;49.296;11.348;2023-04-06T12:42:31;96426.78;;;17.32;28.13
30339;BME280;795;49.296;11.348;2023-04-06T12:44:58;96460.06;;;18.05;27.85
30339;BME280;795;49.296;11.348;2023-04-06T12:47:26;96477.44;;;18.61;26.05
30339;BME280;795;49.296;11.348;2023-04-06T12:49:53;96395.41;;;16.38;27.82
30339;BME280;795;49.296;11.348;2023-04-06T12:52:21;96358.09;;;16.27;27.73
30339;BME280;795;49.296;11.348;2023-04-06T12:54:48;96385.81;;;16.22;29.27
30339;BME280;795;49.296;11.348;2023-04-06T12:57:17;96444.31;;;16.71;28.42
30339;BME280;795;49.296;11.348;2023-04-06T12:59:44;96377.31;;;17.43;28.08
30339;BME280;795;49.296;11.348;2023-04-06T13:02:12;96366.78;;;17.79;26.50
30339;BME280;795;49.296;11.348;2023-04-06T13:04:39;96473.63;;;18.69;26.55
30339;BME280;795;49.296;11.348;2023-04-06T13:07:06;96449.78;;;18.20;26.59
30339;BME280;795;49.296;11.348;2023-04-06T13:09:33;96483.06;;;18.02;26.28
30339;BME280;795;49.296;11.348;2023-04-06T13:12:00;96427.09;;;18.45;25.43
30339;BME280;795;49.296;11.348;2023-04-06T13:14:27;96423.22;;;19.22;25.17
30339;BME280;795;49.296;11.348;2023-04-06T13:16:54;96467.50;;;20.58;24.15